Normanna, Texas
Current Conditions -  °F | °C
As of 3:15 PM on Monday 22 Dec 2014 (Local Time) from KBEA Reporting Station
Clear Clear  
Wind Chill: 73°   Ceiling: Unl
Heat Index: 73°   Visibility: 10mi
Dew Point: 60°   Wind: 5mph
Humidity: 63%   Direction: 200°SSW
Pressure: 29.65"   Gusts: NA
Location:  28.53°N, 97.78°W
Report Text: KBEA 222115Z AUTO 20004KT 10SM CLR 23/15 A2965 RMK AO2 T02270154
Loading
Personal Weather Stations






























Interactive Weather Map New forecast layout! Learn more

10-Day Weather Forecast

Advertisements
Track Severe Weather on mobile